Time;durP1;ratioP1;P1;durP2;ratioP2;P2;SDS_P1;SDS_P2;PMS_P1;PMS_P2;Temp;Humidity;BMP_temperature;BMP_pressure;BME280_temperature;BME280_humidity;BME280_pressure;Samples;Min_cycle;Max_cycle;Signal;HPM_P1;HPM_P2
2022/02/01 00:00:18;;;;;;;21.55;4.60;;;;;;;2.02;100.00;101390.31;5016201;28;20371;-88
2022/02/01 00:02:52;;;;;;;26.13;5.13;;;;;;;2.02;100.00;101380.56;5031056;28;20038;-91
2022/02/01 00:10:23;;;;;;;18.90;4.10;;;;;;;1.87;100.00;101378.88;5031005;28;20136;-89
2022/02/01 00:39:02;;;;;;;21.80;3.63;;;;;;;1.85;100.00;101386.03;5000878;28;20506;-87
2022/02/01 00:41:33;;;;;;;19.90;4.65;;;;;;;1.88;100.00;101388.50;5016113;28;20146;-88
2022/02/01 00:44:01;;;;;;;26.60;4.28;;;;;;;1.88;100.00;101382.34;5032554;28;20605;-89
2022/02/01 00:46:26;;;;;;;15.10;3.17;;;;;;;1.91;100.00;101385.66;5014250;28;20113;-86
2022/02/01 00:48:52;;;;;;;20.30;4.25;;;;;;;1.93;100.00;101382.94;5014418;28;20064;-87
2022/02/01 00:51:19;;;;;;;13.77;3.28;;;;;;;1.97;100.00;101397.66;4998024;28;20122;-86
2022/02/01 00:53:44;;;;;;;17.73;3.55;;;;;;;1.96;100.00;101414.50;5013516;28;20422;-88
2022/02/01 00:56:10;;;;;;;25.83;5.30;;;;;;;2.03;100.00;101429.91;5014584;28;20037;-89
2022/02/01 00:58:36;;;;;;;18.63;3.90;;;;;;;2.02;100.00;101391.16;5013596;28;20053;-89
2022/02/01 01:01:02;;;;;;;27.33;3.67;;;;;;;2.11;100.00;101420.66;5031045;28;20037;-89
2022/02/01 01:03:27;;;;;;;15.93;3.75;;;;;;;2.11;100.00;101418.84;5013985;28;20083;-87
2022/02/01 01:05:53;;;;;;;20.25;3.92;;;;;;;2.15;100.00;101390.38;4963199;28;20041;-92
2022/02/01 01:08:19;;;;;;;15.65;3.70;;;;;;;2.17;100.00;101391.16;4978303;28;20046;-89
2022/02/01 01:10:44;;;;;;;16.25;3.80;;;;;;;2.21;100.00;101398.78;4992402;28;20042;-89
2022/02/01 01:15:43;;;;;;;25.25;5.15;;;;;;;2.32;100.00;101376.09;5020075;28;20041;-87
2022/02/01 01:45:11;;;;;;;19.15;3.15;;;;;;;2.45;100.00;101406.16;5025746;28;20095;-89
2022/02/01 01:53:19;;;;;;;17.60;3.85;;;;;;;2.42;100.00;101401.06;4987268;28;20554;-89
2022/02/01 01:55:48;;;;;;;18.70;2.88;;;;;;;2.41;100.00;101396.69;5010707;28;20107;-88
2022/02/01 01:58:16;;;;;;;18.63;3.47;;;;;;;2.43;100.00;101393.00;4995063;28;20502;-86
2022/02/01 02:03:21;;;;;;;20.85;2.42;;;;;;;2.34;100.00;101388.28;5025100;28;20041;-89
2022/02/01 02:05:47;;;;;;;19.52;3.65;;;;;;;2.40;100.00;101406.44;4992502;28;20152;-87
2022/02/01 02:08:14;;;;;;;17.10;3.00;;;;;;;2.38;100.00;101392.44;5009717;28;20398;-89
2022/02/01 02:10:50;;;;;;;18.38;3.10;;;;;;;2.38;100.00;101381.84;5009646;28;20819;-90
2022/02/01 02:18:20;;;;;;;16.00;2.42;;;;;;;2.34;100.00;101404.19;5026787;28;20041;-88
2022/02/01 02:20:49;;;;;;;18.17;3.08;;;;;;;2.38;100.00;101400.38;4993700;28;20574;-87
2022/02/01 02:23:15;;;;;;;21.65;3.47;;;;;;;2.38;100.00;101389.78;5006640;28;20045;-88
2022/02/01 02:25:41;;;;;;;15.93;3.00;;;;;;;2.34;100.00;101390.94;4993526;28;20099;-88
2022/02/01 02:28:09;;;;;;;19.02;3.85;;;;;;;2.37;100.00;101379.31;5007920;28;20076;-86
2022/02/01 02:30:34;;;;;;;14.52;2.72;;;;;;;2.34;100.00;101385.66;5009288;28;20413;-87
2022/02/01 02:33:04;;;;;;;14.45;3.20;;;;;;;2.34;100.00;101390.94;4999625;28;20040;-90
2022/02/01 02:35:33;;;;;;;15.25;3.40;;;;;;;2.33;100.00;101391.91;5027167;28;20057;-89
2022/02/01 02:38:08;;;;;;;17.13;3.28;;;;;;;2.36;100.00;101391.69;4978159;28;20171;-87
2022/02/01 02:40:58;;;;;;;17.27;3.45;;;;;;;2.37;100.00;101376.66;4995391;28;20594;-89
2022/02/01 02:46:06;;;;;;;19.77;3.92;;;;;;;2.36;100.00;101364.34;4999321;28;20425;-88
2022/02/01 02:48:37;;;;;;;15.68;2.53;;;;;;;2.39;100.00;101369.47;4991583;28;20065;-89
2022/02/01 02:51:02;;;;;;;10.77;2.45;;;;;;;2.39;100.00;101374.78;4971712;28;20049;-86
2022/02/01 02:53:30;;;;;;;16.17;3.03;;;;;;;2.38;100.00;101383.66;5012556;28;20095;-87
2022/02/01 02:55:55;;;;;;;15.70;2.53;;;;;;;2.41;100.00;101386.94;4989617;28;20072;-88
2022/02/01 02:58:22;;;;;;;16.33;2.55;;;;;;;2.42;100.00;101374.56;5010143;28;20045;-86
2022/02/01 03:00:50;;;;;;;13.90;3.47;;;;;;;2.43;100.00;101376.25;5003108;28;20044;-90
2022/02/01 03:03:15;;;;;;;20.55;3.08;;;;;;;2.41;100.00;101371.03;5011746;28;20100;-88
2022/02/01 03:05:41;;;;;;;17.48;3.17;;;;;;;2.42;100.00;101358.69;5006866;28;20573;-86
2022/02/01 03:08:07;;;;;;;13.52;2.70;;;;;;;2.43;100.00;101355.91;5010044;28;20052;-89
2022/02/01 03:10:39;;;;;;;12.55;3.17;;;;;;;2.43;100.00;101349.78;4992620;28;20482;-89
2022/02/01 03:13:13;;;;;;;17.42;3.30;;;;;;;2.45;100.00;101342.59;5004253;28;20389;-89
2022/02/01 03:16:08;;;;;;;9.50;2.15;;;;;;;2.49;100.00;101344.06;4979432;28;20042;-88
2022/02/01 03:21:14;;;;;;;13.68;2.55;;;;;;;2.48;100.00;101343.22;4995550;28;20059;-86
2022/02/01 03:23:40;;;;;;;17.52;3.08;;;;;;;2.48;100.00;101329.16;4987960;28;20064;-90
2022/02/01 03:26:07;;;;;;;10.85;3.05;;;;;;;2.51;100.00;101334.25;4984534;28;20037;-85
2022/02/01 03:28:32;;;;;;;13.63;2.83;;;;;;;2.51;100.00;101355.44;5013306;28;20397;-91
2022/02/01 03:31:00;;;;;;;12.55;2.40;;;;;;;2.54;100.00;101362.34;5000193;28;20128;-89
2022/02/01 03:33:30;;;;;;;12.82;2.30;;;;;;;2.56;100.00;101371.03;4995012;28;20054;-90
2022/02/01 03:35:55;;;;;;;10.70;2.20;;;;;;;2.56;100.00;101371.03;5013502;28;20566;-90
2022/02/01 03:38:25;;;;;;;19.67;3.55;;;;;;;2.58;100.00;101371.78;4977526;28;20053;-87
2022/02/01 03:40:59;;;;;;;6.82;1.58;;;;;;;2.56;100.00;101349.81;4996090;28;20401;-87
2022/02/01 03:43:27;;;;;;;18.75;2.75;;;;;;;2.58;100.00;101332.88;4994993;28;20108;-88
2022/02/01 03:45:53;;;;;;;17.95;2.50;;;;;;;2.57;100.00;101319.75;5029374;28;20049;-88
2022/02/01 03:48:22;;;;;;;15.52;3.10;;;;;;;2.59;100.00;101315.19;5012457;28;20537;-88
2022/02/01 03:50:53;;;;;;;15.68;2.83;;;;;;;2.60;100.00;101319.53;4996411;28;20099;-87
2022/02/01 03:53:18;;;;;;;14.40;2.50;;;;;;;2.60;100.00;101322.19;4983323;28;20041;-88
2022/02/01 03:55:52;;;;;;;14.75;1.88;;;;;;;2.66;100.00;101322.63;4977948;28;20486;-91
2022/02/01 03:58:18;;;;;;;13.02;3.20;;;;;;;2.63;100.00;101337.88;5014005;28;20486;-88
2022/02/01 04:00:45;;;;;;;17.42;3.65;;;;;;;2.66;100.00;101309.38;4993765;28;20053;-91
2022/02/01 04:03:10;;;;;;;15.00;2.25;;;;;;;2.62;100.00;101297.28;4986445;28;20520;-88
2022/02/01 04:05:37;;;;;;;15.63;2.45;;;;;;;2.63;100.00;101304.28;4995791;28;20053;-87
2022/02/01 04:08:03;;;;;;;14.93;2.75;;;;;;;2.62;100.00;101301.75;5017092;28;20044;-87
2022/02/01 04:10:30;;;;;;;9.20;1.65;;;;;;;2.63;100.00;101291.03;5020061;28;20126;-86
2022/02/01 04:12:57;;;;;;;12.88;2.35;;;;;;;2.67;100.00;101286.38;5012339;28;20052;-87
2022/02/01 04:15:25;;;;;;;9.35;1.83;;;;;;;2.66;100.00;101284.69;5004000;28;20041;-86
2022/02/01 04:17:51;;;;;;;16.27;2.47;;;;;;;2.62;100.00;101280.56;5014460;28;20034;-87
2022/02/01 04:20:16;;;;;;;9.90;2.25;;;;;;;2.68;100.00;101265.09;5003710;28;20338;-88
2022/02/01 04:22:42;;;;;;;17.75;2.63;;;;;;;2.68;100.00;101280.16;4984280;28;20047;-87
2022/02/01 04:25:08;;;;;;;9.70;2.30;;;;;;;2.67;100.00;101278.44;4984097;28;20041;-88
2022/02/01 04:27:34;;;;;;;10.27;2.13;;;;;;;2.63;100.00;101288.38;5010183;28;20052;-88
2022/02/01 04:30:08;;;;;;;15.02;2.53;;;;;;;2.67;100.00;101283.72;5014161;28;20041;-90
2022/02/01 04:32:44;;;;;;;12.95;3.33;;;;;;;2.67;100.00;101283.72;5014224;28;20072;-86
2022/02/01 04:35:16;;;;;;;14.80;2.47;;;;;;;2.67;100.00;101292.53;5034421;28;20414;-87
2022/02/01 04:37:44;;;;;;;11.95;3.45;;;;;;;2.63;100.00;101277.78;5013219;28;20057;-85
2022/02/01 04:40:12;;;;;;;11.02;1.98;;;;;;;2.65;100.00;101285.66;5025220;28;20080;-84
2022/02/01 04:42:41;;;;;;;11.57;2.83;;;;;;;2.64;100.00;101286.59;5010745;28;20124;-88
2022/02/01 04:45:12;;;;;;;13.85;2.85;;;;;;;2.67;100.00;101300.47;5011085;28;20099;-87
2022/02/01 04:47:37;;;;;;;12.95;3.08;;;;;;;2.67;100.00;101299.63;5029107;28;20043;-90
2022/02/01 04:50:07;;;;;;;11.70;2.75;;;;;;;2.66;100.00;101287.34;5010088;28;20414;-85
2022/02/01 04:52:32;;;;;;;9.32;2.45;;;;;;;2.66;100.00;101274.09;5031590;28;20045;-85
2022/02/01 04:54:58;;;;;;;9.18;2.33;;;;;;;2.67;100.00;101289.88;5007774;28;20092;-86
2022/02/01 04:57:28;;;;;;;17.20;3.20;;;;;;;2.65;100.00;101288.31;5004529;28;20045;-89
2022/02/01 04:59:54;;;;;;;13.48;2.25;;;;;;;2.64;100.00;101290.06;4992432;28;20124;-90
2022/02/01 05:02:23;;;;;;;13.48;2.38;;;;;;;2.65;100.00;101290.94;5008839;28;20137;-86
2022/02/01 05:04:49;;;;;;;15.15;2.75;;;;;;;2.66;100.00;101282.03;5010619;28;20045;-91
2022/02/01 05:07:20;;;;;;;11.98;2.10;;;;;;;2.66;100.00;101282.88;4998901;28;20100;-85
2022/02/01 05:09:46;;;;;;;15.18;2.63;;;;;;;2.68;100.00;101269.53;5009893;28;20052;-88
2022/02/01 05:12:12;;;;;;;9.60;2.47;;;;;;;2.67;100.00;101258.06;5007999;28;20037;-89
2022/02/01 05:14:38;;;;;;;14.73;3.17;;;;;;;2.68;100.00;101253.66;4996092;28;20494;-86
2022/02/01 05:17:04;;;;;;;11.07;2.35;;;;;;;2.70;100.00;101249.06;4997590;28;20044;-87
2022/02/01 05:22:02;;;;;;;17.65;3.22;;;;;;;2.73;100.00;101235.63;5010949;28;20029;-86
2022/02/01 05:24:28;;;;;;;15.98;2.20;;;;;;;2.74;100.00;101216.13;5010076;28;20045;-90
2022/02/01 05:26:54;;;;;;;11.50;2.08;;;;;;;2.74;100.00;101194.94;5012860;28;20099;-89
2022/02/01 05:29:22;;;;;;;14.13;2.88;;;;;;;2.79;100.00;101208.72;5013940;28;20099;-87
2022/02/01 05:31:51;;;;;;;15.65;3.13;;;;;;;2.80;100.00;101199.81;5012948;28;20080;-89
2022/02/01 05:34:17;;;;;;;14.75;2.80;;;;;;;2.81;100.00;101201.50;5011432;28;20033;-86
2022/02/01 05:36:42;;;;;;;14.32;3.00;;;;;;;2.78;100.00;101207.00;5007778;28;20042;-88
2022/02/01 05:39:20;;;;;;;14.48;3.08;;;;;;;2.81;100.00;101204.16;4997259;28;20037;-92
2022/02/01 05:41:46;;;;;;;12.90;3.15;;;;;;;2.80;100.00;101212.22;5000278;28;20057;-89
2022/02/01 05:44:12;;;;;;;8.02;2.80;;;;;;;2.82;100.00;101211.16;5000971;28;20041;-91
2022/02/01 05:46:39;;;;;;;11.63;2.53;;;;;;;2.80;100.00;101206.91;5027521;28;20044;-90
2022/02/01 05:49:05;;;;;;;18.13;3.28;;;;;;;2.84;100.00;101209.22;5048785;28;20069;-87
2022/02/01 05:51:31;;;;;;;11.77;1.63;;;;;;;2.82;100.00;101194.38;5029719;28;20509;-87
2022/02/01 05:53:57;;;;;;;15.13;2.72;;;;;;;2.82;100.00;101179.34;5010835;28;20051;-90
2022/02/01 05:56:22;;;;;;;11.82;3.22;;;;;;;2.79;100.00;101170.75;5007223;28;20033;-87
2022/02/01 05:58:48;;;;;;;12.77;2.88;;;;;;;2.80;100.00;101172.47;5008924;28;20125;-89
2022/02/01 06:01:14;;;;;;;12.52;2.70;;;;;;;2.78;100.00;101175.19;5009483;28;20045;-88
2022/02/01 06:03:39;;;;;;;16.58;2.45;;;;;;;2.78;100.00;101148.69;5008260;28;20033;-88
2022/02/01 06:06:05;;;;;;;13.27;3.30;;;;;;;2.82;100.00;101159.94;5013176;28;20056;-85
2022/02/01 06:08:31;;;;;;;10.93;3.00;;;;;;;2.81;100.00;101158.25;5006054;28;20077;-86
2022/02/01 06:10:56;;;;;;;19.98;3.35;;;;;;;2.83;100.00;101167.78;4985720;28;20133;-90
2022/02/01 06:13:21;;;;;;;9.63;2.40;;;;;;;2.83;100.00;101157.19;4997308;28;20040;-88
2022/02/01 06:15:47;;;;;;;10.27;2.58;;;;;;;2.84;100.00;101182.72;5030203;28;20064;-86
2022/02/01 06:18:12;;;;;;;12.52;3.20;;;;;;;2.89;100.00;101150.63;5012021;28;20494;-89
2022/02/01 06:20:38;;;;;;;12.10;3.08;;;;;;;2.90;100.00;101161.09;5009847;28;20231;-92
2022/02/01 06:23:14;;;;;;;9.65;2.67;;;;;;;2.94;100.00;101159.94;5006824;28;20176;-91
2022/02/01 06:28:04;;;;;;;16.02;2.63;;;;;;;2.96;100.00;101177.53;5008720;28;20049;-88
2022/02/01 06:30:30;;;;;;;9.55;2.92;;;;;;;2.98;100.00;101170.34;5000942;28;20284;-89
2022/02/01 06:32:55;;;;;;;13.82;3.83;;;;;;;2.97;100.00;101176.59;4994477;28;20065;-88
2022/02/01 06:35:22;;;;;;;11.98;4.25;;;;;;;2.93;100.00;101157.38;4991301;28;20472;-89
2022/02/01 06:37:47;;;;;;;8.57;3.30;;;;;;;2.91;100.00;101149.56;5028922;28;20072;-88
2022/02/01 06:40:14;;;;;;;10.95;3.40;;;;;;;2.90;100.00;101153.16;5021714;28;20069;-90
2022/02/01 06:43:07;;;;;;;11.43;3.33;;;;;;;2.89;100.00;101146.16;4997101;28;20049;-88
2022/02/01 06:45:33;;;;;;;10.23;3.83;;;;;;;2.87;100.00;101137.44;5025714;28;20450;-88
2022/02/01 06:47:59;;;;;;;11.07;3.83;;;;;;;2.88;100.00;101133.03;5013361;28;20049;-88
2022/02/01 06:50:24;;;;;;;12.80;3.17;;;;;;;2.86;100.00;101140.22;4974024;28;20780;-90
2022/02/01 06:52:55;;;;;;;13.52;4.22;;;;;;;2.87;100.00;101145.41;5012538;28;20041;-88
2022/02/01 06:55:32;;;;;;;11.73;4.10;;;;;;;2.85;100.00;101141.16;4988442;28;20057;-86
2022/02/01 06:57:58;;;;;;;13.52;4.25;;;;;;;2.87;100.00;101121.53;4993899;28;20037;-90
2022/02/01 07:00:24;;;;;;;14.02;5.50;;;;;;;2.91;100.00;101125.69;5014056;28;20052;-90
2022/02/01 07:02:49;;;;;;;11.85;3.78;;;;;;;2.89;100.00;101135.56;5006249;28;20038;-86
2022/02/01 07:05:15;;;;;;;12.38;4.10;;;;;;;2.91;100.00;101136.31;5007486;28;20569;-89
2022/02/01 07:07:40;;;;;;;8.18;2.88;;;;;;;2.90;100.00;101118.69;5011721;28;20058;-89
2022/02/01 07:10:06;;;;;;;10.98;4.68;;;;;;;2.97;100.00;101142.97;5010877;28;20044;-87
2022/02/01 07:12:31;;;;;;;13.55;4.45;;;;;;;2.98;100.00;101138.53;5013455;28;20045;-89
2022/02/01 07:14:57;;;;;;;15.57;4.63;;;;;;;2.99;100.00;101138.41;5015483;28;20092;-85
2022/02/01 07:17:26;;;;;;;21.55;5.40;;;;;;;3.01;100.00;101143.59;5041892;28;20069;-87
2022/02/01 07:19:52;;;;;;;11.13;4.07;;;;;;;3.00;100.00;101134.81;5011921;28;20072;-90
2022/02/01 07:22:18;;;;;;;15.05;4.57;;;;;;;3.03;100.00;101133.75;5029375;28;20037;-87
2022/02/01 07:24:59;;;;;;;12.55;4.88;;;;;;;3.06;100.00;101125.59;5028963;28;20043;-87
2022/02/01 07:27:37;;;;;;;15.25;4.82;;;;;;;3.05;100.00;101111.47;5007950;28;20033;-86
2022/02/01 07:30:07;;;;;;;18.75;4.85;;;;;;;3.07;100.00;101106.06;5009501;28;20041;-86
2022/02/01 07:32:33;;;;;;;;;;;;;;;3.06;100.00;101099.06;5024315;28;20048;-89
2022/02/01 07:34:59;;;;;;;17.50;5.85;;;;;;;3.03;100.00;101101.94;5024611;28;20281;-89
2022/02/01 07:37:24;;;;;;;17.10;6.85;;;;;;;3.07;100.00;101090.16;5027610;28;20121;-88
2022/02/01 07:39:50;;;;;;;23.17;7.15;;;;;;;3.10;100.00;101085.47;5021606;28;20346;-88
2022/02/01 07:42:15;;;;;;;14.68;6.15;;;;;;;3.13;100.00;101090.56;5045413;28;20138;-87
2022/02/01 07:44:41;;;;;;;15.20;6.05;;;;;;;3.13;100.00;101087.91;5012413;28;20472;-87
2022/02/01 07:47:16;;;;;;;13.40;6.25;;;;;;;3.15;100.00;101072.72;5046586;28;20552;-88
2022/02/01 07:49:41;;;;;;;15.75;6.30;;;;;;;3.15;100.00;101082.50;5013163;28;20041;-88
2022/02/01 07:52:07;;;;;;;19.00;7.80;;;;;;;3.16;100.00;101062.97;5043988;28;20127;-87
2022/02/01 07:54:32;;;;;;;19.70;10.55;;;;;;;3.19;100.00;101062.75;5031186;28;20076;-88
2022/02/01 07:56:57;;;;;;;25.42;10.52;;;;;;;3.17;100.00;101059.38;5049383;28;20701;-87
2022/02/01 07:59:23;;;;;;;25.25;9.85;;;;;;;3.15;100.00;101045.38;5048976;28;20108;-87
2022/02/01 08:01:48;;;;;;;26.42;11.45;;;;;;;3.09;100.00;101049.31;5048321;28;20048;-88
2022/02/01 08:04:13;;;;;;;23.63;11.70;;;;;;;3.09;100.00;101049.31;5020053;28;20197;-89
2022/02/01 08:06:39;;;;;;;27.70;13.27;;;;;;;3.10;100.00;101051.00;4981260;28;20053;-88
2022/02/01 08:09:13;;;;;;;32.58;13.98;;;;;;;3.09;100.00;101041.34;5008027;28;20056;-88
2022/02/01 08:11:39;;;;;;;28.27;13.00;;;;;;;3.05;100.00;101018.69;5009218;28;20422;-88
2022/02/01 08:16:46;;;;;;;31.75;16.67;;;;;;;3.08;100.00;101018.47;5027864;28;20037;-87
2022/02/01 08:19:22;;;;;;;30.45;15.45;;;;;;;3.04;100.00;101016.13;4989828;28;20116;-87
2022/02/01 08:21:50;;;;;;;27.95;15.65;;;;;;;3.06;100.00;101014.22;5007554;28;20049;-87
2022/02/01 08:24:16;;;;;;;27.25;14.55;;;;;;;3.03;100.00;101004.69;4989348;28;20088;-88
2022/02/01 08:26:41;;;;;;;31.98;15.70;;;;;;;3.07;100.00;100997.34;4991648;28;20490;-87
2022/02/01 08:29:08;;;;;;;28.63;14.18;;;;;;;3.03;100.00;100988.78;4985289;28;20053;-87
2022/02/01 08:31:33;;;;;;;28.70;13.75;;;;;;;3.04;100.00;100984.31;5025690;28;20044;-87
2022/02/01 08:33:59;;;;;;;42.45;18.05;;;;;;;3.06;100.00;100979.75;4998668;28;20250;-87
2022/02/01 08:36:24;;;;;;;35.55;16.30;;;;;;;3.03;100.00;100978.16;4978469;28;20045;-87
2022/02/01 08:38:50;;;;;;;28.05;17.08;;;;;;;3.07;100.00;100971.66;5003997;28;20592;-87
2022/02/01 08:41:15;;;;;;;37.78;22.58;;;;;;;3.09;100.00;100966.25;5007888;28;20041;-88
2022/02/01 08:43:40;;;;;;;39.72;21.10;;;;;;;3.10;100.00;100957.34;4992127;28;20063;-87
2022/02/01 08:46:06;;;;;;;36.55;18.52;;;;;;;3.09;100.00;100956.50;5026240;28;20099;-87
2022/02/01 08:48:31;;;;;;;33.92;18.88;;;;;;;3.08;100.00;100924.78;5011261;28;20045;-88
2022/02/01 08:51:01;;;;;;;39.70;27.05;;;;;;;3.14;100.00;100934.97;4991375;28;20037;-86
2022/02/01 08:53:34;;;;;;;45.38;26.83;;;;;;;3.14;100.00;100927.00;4992051;28;20117;-88
2022/02/01 08:56:03;;;;;;;45.50;27.05;;;;;;;3.17;100.00;100921.47;4973357;28;20401;-89
2022/02/01 08:58:30;;;;;;;44.97;26.60;;;;;;;3.19;100.00;100924.84;4989186;28;20501;-88
2022/02/01 09:00:56;;;;;;;48.33;22.42;;;;;;;3.18;100.00;100904.59;5005444;28;20053;-87
2022/02/01 09:03:22;;;;;;;49.15;25.90;;;;;;;3.21;100.00;100895.56;4987114;28;20052;-88
2022/02/01 09:05:52;;;;;;;50.00;29.02;;;;;;;3.23;100.00;100886.53;5018311;28;20057;-88
2022/02/01 09:08:19;;;;;;;46.15;29.00;;;;;;;3.24;100.00;100874.97;5023736;28;20038;-88
2022/02/01 09:10:45;;;;;;;38.55;22.25;;;;;;;3.22;100.00;100868.91;4992463;28;20405;-87
2022/02/01 09:13:10;;;;;;;48.75;29.13;;;;;;;3.25;100.00;100850.16;5007676;28;20041;-88
2022/02/01 09:15:36;;;;;;;52.10;29.70;;;;;;;3.31;100.00;100843.50;5004621;28;20277;-87
2022/02/01 09:18:01;;;;;;;49.70;29.52;;;;;;;3.32;100.00;100840.75;5003841;28;20038;-87
2022/02/01 09:20:30;;;;;;;48.45;25.25;;;;;;;3.34;100.00;100843.31;4988313;28;20034;-88
2022/02/01 09:22:56;;;;;;;45.92;27.30;;;;;;;3.35;100.00;100821.09;5021973;28;20041;-89
2022/02/01 09:25:24;;;;;;;38.88;21.88;;;;;;;3.39;100.00;100810.16;5019734;28;20049;-87
2022/02/01 09:27:50;;;;;;;46.17;25.85;;;;;;;3.43;100.00;100808.09;5000072;28;20143;-88
2022/02/01 09:30:19;;;;;;;39.38;18.30;;;;;;;3.44;100.00;100811.59;4974637;28;20070;-88
2022/02/01 09:32:45;;;;;;;45.47;22.73;;;;;;;3.48;100.00;100782.06;5003013;28;20061;-89
2022/02/01 09:35:10;;;;;;;38.55;17.98;;;;;;;3.49;100.00;100782.91;4974594;28;20341;-88
2022/02/01 09:37:36;;;;;;;42.85;22.42;;;;;;;3.52;100.00;100780.03;4999370;28;20137;-87
2022/02/01 09:40:03;;;;;;;44.20;20.75;;;;;;;3.53;100.00;100784.34;4998615;28;20042;-88
2022/02/01 09:42:29;;;;;;;42.60;20.42;;;;;;;3.55;100.00;100788.56;5021141;28;20410;-87
2022/02/01 09:44:55;;;;;;;41.13;21.95;;;;;;;3.58;100.00;100787.50;4999664;28;20053;-88
2022/02/01 09:47:38;;;;;;;38.80;18.85;;;;;;;3.60;100.00;100785.59;5007179;28;20042;-88
2022/02/01 09:50:06;;;;;;;39.08;21.45;;;;;;;3.62;100.00;100770.34;5001653;28;20033;-88
2022/02/01 09:52:32;;;;;;;45.20;21.65;;;;;;;3.64;100.00;100744.56;5009738;28;20045;-88
2022/02/01 09:55:01;;;;;;;38.20;22.15;;;;;;;3.69;100.00;100726.47;5003472;28;20057;-88
2022/02/01 09:57:27;;;;;;;35.85;19.63;;;;;;;3.72;100.00;100747.47;5022171;28;20064;-87
2022/02/01 09:59:56;;;;;;;40.67;21.48;;;;;;;3.75;100.00;100725.97;5016551;28;20346;-88
2022/02/01 10:02:33;;;;;;;40.65;22.23;;;;;;;3.77;100.00;100723.19;5024437;28;20103;-88
2022/02/01 10:05:09;;;;;;;41.55;22.88;;;;;;;3.79;100.00;100742.50;5014251;28;20064;-87
2022/02/01 10:07:50;;;;;;;43.15;25.60;;;;;;;3.82;100.00;100736.94;4986153;28;20103;-87
2022/02/01 10:10:16;;;;;;;43.17;23.48;;;;;;;3.86;100.00;100735.75;5002524;28;20053;-88
2022/02/01 10:12:43;;;;;;;37.78;19.75;;;;;;;3.89;100.00;100738.16;5002086;28;20520;-87
2022/02/01 10:15:23;;;;;;;41.80;23.50;;;;;;;3.90;100.00;100721.25;5001995;28;20033;-88
2022/02/01 10:17:56;;;;;;;38.15;22.17;;;;;;;3.92;100.00;100727.28;4999924;28;20582;-88
2022/02/01 10:20:41;;;;;;;37.47;20.48;;;;;;;3.94;100.00;100724.50;4991087;28;20152;-88
2022/02/01 10:23:21;;;;;;;32.70;17.63;;;;;;;3.97;100.00;100756.97;4986198;28;20053;-88
2022/02/01 10:26:04;;;;;;;;;;;;;;;3.98;100.00;100729.44;5008743;28;20152;-87
2022/02/01 10:28:54;;;;;;;33.25;18.27;;;;;;;3.96;100.00;100722.56;5006378;28;19924;-88
2022/02/01 10:31:37;;;;;;;31.02;17.30;;;;;;;3.99;100.00;100699.25;5021606;28;20042;-87
2022/02/01 10:37:04;;;;;;;30.92;18.40;;;;;;;4.09;100.00;100670.16;5008000;28;20129;-87
2022/02/01 10:39:33;;;;;;;28.25;15.55;;;;;;;4.14;100.00;100669.78;5001492;28;20044;-86
2022/02/01 10:42:05;;;;;;;33.22;20.33;;;;;;;4.18;100.00;100674.72;5007739;28;20045;-88
2022/02/01 10:44:38;;;;;;;28.40;17.88;;;;;;;4.23;100.00;100669.00;4990235;28;20132;-87
2022/02/01 10:47:05;;;;;;;27.52;14.70;;;;;;;4.25;100.00;100672.38;4964601;28;20045;-87
2022/02/01 10:49:32;;;;;;;24.20;13.13;;;;;;;4.28;100.00;100654.38;5001405;28;20128;-88
2022/02/01 10:52:27;;;;;;;21.05;12.27;;;;;;;4.29;100.00;100672.03;4998074;28;20041;-89
2022/02/01 10:54:52;;;;;;;20.90;11.70;;;;;;;4.32;100.00;100651.50;4985514;28;20079;-88
2022/02/01 10:57:18;;;;;;;21.00;11.75;;;;;;;4.35;100.00;100662.69;5024325;28;20034;-88
2022/02/01 10:59:43;;;;;;;21.63;12.10;;;;;;;4.40;100.00;100664.97;4974755;28;20120;-87
2022/02/01 11:02:10;;;;;;;24.05;12.93;;;;;;;4.39;100.00;100661.47;4991291;28;20045;-87
2022/02/01 11:04:37;;;;;;;23.63;12.77;;;;;;;4.41;100.00;100648.06;5000751;28;20116;-88
2022/02/01 11:07:03;;;;;;;23.63;12.50;;;;;;;4.42;100.00;100647.94;5010018;28;20505;-87
2022/02/01 11:09:34;;;;;;;20.17;10.23;;;;;;;4.46;100.00;100640.53;4990364;28;20057;-88
2022/02/01 11:12:10;;;;;;;24.13;14.95;;;;;;;4.49;100.00;100649.13;5006976;28;20611;-88
2022/02/01 11:14:42;;;;;;;25.85;14.85;;;;;;;4.51;100.00;100643.66;5018551;28;20112;-87
2022/02/01 11:17:11;;;;;;;20.48;11.60;;;;;;;4.52;100.00;100621.44;5006809;28;20062;-88
2022/02/01 11:19:51;;;;;;;25.45;15.45;;;;;;;4.53;100.00;100602.69;5005696;28;20033;-89
2022/02/01 11:22:29;;;;;;;24.08;13.95;;;;;;;4.55;100.00;100602.56;5021384;28;20045;-88
2022/02/01 11:25:20;;;;;;;23.70;15.20;;;;;;;4.59;100.00;100582.72;5023490;28;20252;-88
2022/02/01 11:28:11;;;;;;;20.13;12.38;;;;;;;4.60;100.00;100595.03;5005213;28;20132;-87
2022/02/01 11:30:39;;;;;;;21.50;11.80;;;;;;;4.62;100.00;100577.16;4990943;28;20506;-88
2022/02/01 11:33:07;;;;;;;22.48;12.82;;;;;;;4.67;100.00;100580.25;5004872;28;20144;-87
2022/02/01 11:35:33;;;;;;;17.90;10.63;;;;;;;4.71;100.00;100576.34;5007443;28;20041;-88
2022/02/01 11:38:03;;;;;;;20.40;11.50;;;;;;;4.73;100.00;100558.47;5005052;28;20064;-88
2022/02/01 11:40:36;;;;;;;21.15;12.98;;;;;;;4.75;100.00;100547.72;5025660;28;20052;-88
2022/02/01 11:43:05;;;;;;;24.23;12.40;;;;;;;4.80;100.00;100552.63;5024231;28;20042;-87
2022/02/01 11:45:34;;;;;;;18.88;10.90;;;;;;;4.82;100.00;100530.25;4998373;28;20450;-87
2022/02/01 11:48:03;;;;;;;22.92;13.38;;;;;;;4.87;100.00;100543.16;4997636;28;20042;-88
2022/02/01 11:50:29;;;;;;;20.92;9.85;;;;;;;4.88;100.00;100519.06;4988208;28;20087;-87
2022/02/01 11:52:59;;;;;;;23.17;13.75;;;;;;;4.90;100.00;100542.88;4984138;28;20415;-87
2022/02/01 11:55:31;;;;;;;22.42;12.10;;;;;;;4.92;100.00;100524.94;5025890;28;20053;-88
2022/02/01 11:58:04;;;;;;;18.92;11.23;;;;;;;4.96;100.00;100515.75;5007043;28;20379;-88
2022/02/01 12:00:38;;;;;;;17.65;8.85;;;;;;;4.96;100.00;100499.78;5006549;28;20494;-87
2022/02/01 12:03:03;;;;;;;19.65;9.93;;;;;;;4.99;100.00;100496.84;5014601;28;20415;-88
2022/02/01 12:05:35;;;;;;;21.25;11.48;;;;;;;5.03;100.00;100494.75;4993534;28;20064;-87
2022/02/01 12:08:04;;;;;;;19.48;10.40;;;;;;;5.07;100.00;100475.75;5023620;28;20045;-88
2022/02/01 12:10:31;;;;;;;21.27;12.50;;;;;;;5.08;100.00;100480.06;5007359;28;20049;-88
2022/02/01 12:12:59;;;;;;;20.60;12.98;;;;;;;5.13;100.00;100490.31;5001509;28;20129;-87
2022/02/01 12:15:27;;;;;;;20.95;11.50;;;;;;;5.17;100.00;100481.06;5009124;28;20049;-88
2022/02/01 12:18:07;;;;;;;16.90;10.30;;;;;;;5.20;100.00;100465.69;5015353;28;20042;-87
2022/02/01 12:20:36;;;;;;;21.17;13.77;;;;;;;5.25;100.00;100462.63;5020321;28;20042;-87
2022/02/01 12:23:20;;;;;;;18.25;11.40;;;;;;;5.28;100.00;100466.81;5026182;28;20673;-87
2022/02/01 12:25:49;;;;;;;20.63;12.15;;;;;;;5.32;100.00;100450.47;5009611;28;20050;-87
2022/02/01 12:28:19;;;;;;;20.65;11.90;;;;;;;5.37;100.00;100429.56;5027253;28;20124;-88
2022/02/01 12:30:46;;;;;;;18.42;10.93;;;;;;;5.42;100.00;100447.78;5008344;28;20046;-87
2022/02/01 12:33:17;;;;;;;17.77;11.13;;;;;;;5.47;100.00;100450.88;4964353;28;20124;-87
2022/02/01 12:35:43;;;;;;;18.48;11.00;;;;;;;5.51;100.00;100428.31;5010586;28;20182;-88
2022/02/01 12:38:16;;;;;;;18.60;11.35;;;;;;;5.56;100.00;100415.44;5010624;28;20699;-88
2022/02/01 12:40:41;;;;;;;14.20;9.50;;;;;;;5.63;100.00;100429.00;4993942;28;20119;-88
2022/02/01 12:43:13;;;;;;;14.55;8.80;;;;;;;5.70;100.00;100438.13;4989858;28;20486;-88
2022/02/01 12:46:01;;;;;;;13.40;7.38;;;;;;;5.73;100.00;100410.38;5016549;28;20107;-88
2022/02/01 12:48:26;;;;;;;14.27;8.20;;;;;;;5.77;100.00;100409.94;5002464;28;20045;-88
2022/02/01 12:50:57;;;;;;;12.50;7.15;;;;;;;5.83;100.00;100397.88;5013451;28;20060;-88